Los Chavez, New Mexico
Current Conditions -  °F | °C
As of 5:52 AM on Wednesday 22 Oct 2014 (Local Time) from KABQ Reporting Station
Scattered Clouds Scattered Clouds  
Wind Chill: 54°   Ceiling: Unl
Heat Index: 54°   Visibility: 10mi
Dew Point: 47°   Wind: 6mph
Humidity: 77%   Direction: 140°SE
Pressure: 30.14"   Gusts: NA
Location:  34.5756°N, 106.588°W
Report Text: KABQ 221152Z 14005KT 10SM SCT095 12/08 A3014 RMK AO2 SLP150 T01220083 10144 20117 53005
Loading
Personal Weather Stations






























Interactive Weather Map New forecast layout! Learn more

10-Day Weather Forecast

Advertisements
Track Severe Weather on mobile